createdAt,value
2023-01-21T00:00:59.786Z,102112.34
2023-01-21T00:03:26.461Z,102116.28
2023-01-21T00:05:53.045Z,102120.06
2023-01-21T00:08:19.616Z,102116.13
2023-01-21T00:10:46.107Z,102126.47
2023-01-21T00:13:12.561Z,102130.81
2023-01-21T00:15:39.145Z,102137.66
2023-01-21T00:18:05.790Z,102135.53
2023-01-21T00:20:32.731Z,102139.28
2023-01-21T00:22:59.285Z,102146.06
2023-01-21T00:25:25.836Z,102139.34
2023-01-21T00:27:52.302Z,102149.88
2023-01-21T00:30:19.201Z,102162.91
2023-01-21T00:32:45.721Z,102164.81
2023-01-21T00:35:12.202Z,102173.28
2023-01-21T00:37:38.706Z,102175.19
2023-01-21T00:40:06.518Z,102182.03
2023-01-21T00:42:33.000Z,102189.91
2023-01-21T00:44:59.951Z,102178.00
2023-01-21T00:47:26.614Z,102186.44
2023-01-21T00:49:53.029Z,102188.88
2023-01-21T00:52:19.577Z,102192.19
2023-01-21T00:54:46.028Z,102187.53
2023-01-21T00:57:13.803Z,102194.91
2023-01-21T00:59:40.716Z,102190.81
2023-01-21T01:02:07.200Z,102198.69
2023-01-21T01:04:33.767Z,102210.13
2023-01-21T01:07:00.238Z,102213.88
2023-01-21T01:09:26.748Z,102214.97
2023-01-21T01:11:53.203Z,102216.88
2023-01-21T01:14:20.032Z,102222.03
2023-01-21T01:16:46.494Z,102209.59
2023-01-21T01:19:13.115Z,102233.66
2023-01-21T01:21:39.575Z,102238.81
2023-01-21T01:24:06.421Z,102239.94
2023-01-21T01:26:35.454Z,102244.56
2023-01-21T01:29:03.956Z,102248.09
2023-01-21T01:31:30.493Z,102249.22
2023-01-21T01:33:57.692Z,102243.81
2023-01-21T01:36:24.531Z,102256.03
2023-01-21T01:38:52.297Z,102246.78
2023-01-21T01:41:24.718Z,102243.22
2023-01-21T01:44:05.225Z,102247.06
2023-01-21T01:46:36.601Z,102260.69
2023-01-21T01:49:22.158Z,102267.19
2023-01-21T01:51:55.935Z,102263.97
2023-01-21T01:54:28.717Z,102269.41
2023-01-21T01:56:59.954Z,102260.72
2023-01-21T01:59:27.780Z,102268.31
2023-01-21T02:01:55.896Z,102273.25
2023-01-21T02:04:27.351Z,102275.97
2023-01-21T02:06:55.781Z,102278.16
2023-01-21T02:09:23.290Z,102277.03
2023-01-21T02:11:49.940Z,102277.03
2023-01-21T02:14:16.655Z,102278.97
2023-01-21T02:17:00.292Z,102292.59
2023-01-21T02:19:32.837Z,102297.78
2023-01-21T02:22:17.564Z,102305.41
2023-01-21T02:25:21.589Z,102304.38
2023-01-21T02:28:25.634Z,102311.22
2023-01-21T02:31:25.124Z,102315.03
2023-01-21T02:34:13.108Z,102312.31
2023-01-21T02:37:07.003Z,102319.13
2023-01-21T02:39:45.020Z,102321.34
2023-01-21T02:42:29.366Z,102329.25
2023-01-21T02:45:01.766Z,102323.59
2023-01-21T02:47:47.405Z,102322.81
2023-01-21T02:50:33.222Z,102324.69
2023-01-21T02:53:01.767Z,102337.75
2023-01-21T02:55:35.623Z,102342.66
2023-01-21T02:58:14.795Z,102346.25
2023-01-21T03:00:57.536Z,102351.97
2023-01-21T03:03:36.294Z,102352.56
2023-01-21T03:06:18.436Z,102357.44
2023-01-21T03:08:54.100Z,102368.34
2023-01-21T03:11:22.298Z,102374.88
2023-01-21T03:14:19.018Z,102371.91
2023-01-21T03:16:57.576Z,102377.34
2023-01-21T03:19:32.480Z,102379.56
2023-01-21T03:22:02.239Z,102372.25
2023-01-21T03:24:29.430Z,102377.41
2023-01-21T03:26:58.932Z,102378.50
2023-01-21T03:29:29.955Z,102382.84
2023-01-21T03:32:05.087Z,102381.78
2023-01-21T03:34:36.421Z,102395.09
2023-01-21T03:37:28.498Z,102388.56
2023-01-21T03:40:19.013Z,102391.06
2023-01-21T03:42:47.988Z,102389.72
2023-01-21T03:45:14.763Z,102390.81
2023-01-21T03:47:50.428Z,102401.69
2023-01-21T03:50:23.231Z,102396.53
2023-01-21T03:52:50.134Z,102399.03
2023-01-21T03:55:17.609Z,102400.13
2023-01-21T03:57:44.321Z,102400.41
2023-01-21T04:00:11.515Z,102393.88
2023-01-21T04:02:37.953Z,102393.88
2023-01-21T04:05:04.764Z,102394.75
2023-01-21T04:07:31.265Z,102391.47
2023-01-21T04:09:57.733Z,102394.19
2023-01-21T04:12:24.269Z,102392.59
2023-01-21T04:14:50.783Z,102406.69
2023-01-21T04:17:17.319Z,102409.69
2023-01-21T04:19:43.838Z,102402.63
2023-01-21T04:22:10.360Z,102394.81
2023-01-21T04:24:36.870Z,102403.75
2023-01-21T04:27:03.402Z,102411.09
2023-01-21T04:29:29.871Z,102414.63
2023-01-21T04:31:56.368Z,102419.81
2023-01-21T04:34:22.913Z,102419.00
2023-01-21T04:36:49.357Z,102421.75
2023-01-21T04:39:15.924Z,102419.81
2023-01-21T04:41:42.436Z,102432.34
2023-01-21T04:44:09.042Z,102423.91
2023-01-21T04:46:35.497Z,102422.00
2023-01-21T04:49:01.992Z,102416.59
2023-01-21T04:51:28.503Z,102425.03
2023-01-21T04:53:55.038Z,102431.84
2023-01-21T04:56:21.493Z,102438.06
2023-01-21T04:58:47.951Z,102436.19
2023-01-21T05:01:14.507Z,102443.25
2023-01-21T05:03:41.035Z,102451.19
2023-01-21T05:06:07.630Z,102451.44
2023-01-21T05:08:34.091Z,102452.00
2023-01-21T05:11:00.566Z,102456.06
2023-01-21T05:13:27.035Z,102456.38
2023-01-21T05:15:53.797Z,102464.78
2023-01-21T05:18:20.336Z,102468.34
2023-01-21T05:20:46.773Z,102466.16
2023-01-21T05:23:13.274Z,102473.75
2023-01-21T05:25:39.760Z,102471.63
2023-01-21T05:28:06.268Z,102482.22
2023-01-21T05:30:32.805Z,102482.22
2023-01-21T05:32:59.274Z,102479.53
2023-01-21T05:35:25.814Z,102483.31
2023-01-21T05:37:52.284Z,102491.44
2023-01-21T05:40:19.437Z,102483.56
2023-01-21T05:42:46.460Z,102485.25
2023-01-21T05:45:13.253Z,102496.63
2023-01-21T05:47:39.899Z,102496.63
2023-01-21T05:50:06.888Z,102503.41
2023-01-21T05:52:33.384Z,102501.50
2023-01-21T05:55:02.192Z,102510.22
2023-01-21T05:57:29.859Z,102503.13
2023-01-21T05:59:56.481Z,102509.66
2023-01-21T06:02:23.024Z,102519.44
2023-01-21T06:04:49.529Z,102511.81
2023-01-21T06:07:16.462Z,102516.72
2023-01-21T06:09:43.037Z,102525.13
2023-01-21T06:12:09.572Z,102520.56
2023-01-21T06:14:36.002Z,102528.16
2023-01-21T06:17:02.499Z,102529.22
2023-01-21T06:19:29.014Z,102538.19
2023-01-21T06:21:55.472Z,102534.66
2023-01-21T06:24:21.970Z,102539.00
2023-01-21T06:26:48.401Z,102549.84
2023-01-21T06:29:14.836Z,102545.78
2023-01-21T06:31:41.489Z,102553.38
2023-01-21T06:34:08.045Z,102552.03
2023-01-21T06:36:34.580Z,102553.66
2023-01-21T06:39:01.042Z,102556.63
2023-01-21T06:41:27.479Z,102561.81
2023-01-21T06:43:53.907Z,102550.38
2023-01-21T06:46:20.412Z,102562.91
2023-01-21T06:48:46.955Z,102564.78
2023-01-21T06:51:13.407Z,102565.06
2023-01-21T06:53:39.875Z,102558.81
2023-01-21T06:56:06.606Z,102571.03
2023-01-21T06:58:33.060Z,102578.91
2023-01-21T07:00:59.543Z,102575.91
2023-01-21T07:03:25.996Z,102578.63
2023-01-21T07:05:52.557Z,102578.06
2023-01-21T07:08:18.983Z,102586.78
2023-01-21T07:10:47.643Z,102593.00
2023-01-21T07:13:14.318Z,102591.66
2023-01-21T07:15:40.787Z,102604.69
2023-01-21T07:18:07.283Z,102613.91
2023-01-21T07:20:34.023Z,102615.53
2023-01-21T07:23:00.450Z,102618.78
2023-01-21T07:25:27.175Z,102617.69
2023-01-21T07:27:53.671Z,102612.78
2023-01-21T07:30:21.305Z,102624.69
2023-01-21T07:32:47.924Z,102629.84
2023-01-21T07:35:14.873Z,102627.13
2023-01-21T07:37:41.676Z,102634.44
2023-01-21T07:40:08.831Z,102638.75
2023-01-21T07:42:35.396Z,102638.75
2023-01-21T07:45:03.835Z,102642.00
2023-01-21T07:47:30.427Z,102646.31
2023-01-21T07:49:56.966Z,102639.19
2023-01-21T07:52:23.452Z,102631.31
2023-01-21T07:54:49.943Z,102647.03
2023-01-21T07:57:16.369Z,102642.94
2023-01-21T07:59:43.032Z,102649.97
2023-01-21T08:02:11.835Z,102652.66
2023-01-21T08:04:38.337Z,102661.31
2023-01-21T08:07:11.926Z,102657.75
2023-01-21T08:09:39.489Z,102664.81
2023-01-21T08:12:07.716Z,102665.59
2023-01-21T08:14:34.202Z,102663.41
2023-01-21T08:17:01.001Z,102672.38
2023-01-21T08:19:27.898Z,102674.53
2023-01-21T08:21:54.379Z,102676.09
2023-01-21T08:24:20.863Z,102676.34
2023-01-21T08:26:48.546Z,102674.13
2023-01-21T08:29:15.449Z,102680.63
2023-01-21T08:31:41.941Z,102680.06
2023-01-21T08:34:08.535Z,102681.66
2023-01-21T08:36:35.019Z,102680.81
2023-01-21T08:39:02.013Z,102688.13
2023-01-21T08:41:28.712Z,102688.38
2023-01-21T08:43:55.212Z,102690.81
2023-01-21T08:46:21.694Z,102681.25
2023-01-21T08:48:48.376Z,102692.41
2023-01-21T08:51:15.039Z,102700.53
2023-01-21T08:53:41.566Z,102706.00
2023-01-21T08:56:08.119Z,102704.31
2023-01-21T08:58:34.933Z,102707.81
2023-01-21T09:01:10.141Z,102712.69
2023-01-21T09:03:36.864Z,102710.22
2023-01-21T09:06:05.368Z,102713.78
2023-01-21T09:08:32.510Z,102709.59
2023-01-21T09:11:03.401Z,102716.91
2023-01-21T09:13:32.053Z,102716.88
2023-01-21T09:15:58.636Z,102726.91
2023-01-21T09:18:25.273Z,102718.44
2023-01-21T09:20:52.130Z,102724.66
2023-01-21T09:23:25.056Z,102728.47
2023-01-21T09:26:05.589Z,102737.69
2023-01-21T09:28:36.301Z,102740.72
2023-01-21T09:31:05.896Z,102727.28
2023-01-21T09:33:35.430Z,102741.72
2023-01-21T09:36:04.505Z,102740.03
2023-01-21T09:38:31.154Z,102746.28
2023-01-21T09:41:12.173Z,102754.16
2023-01-21T09:43:50.794Z,102757.38
2023-01-21T09:46:36.039Z,102751.06
2023-01-21T09:49:05.621Z,102757.06
2023-01-21T09:51:47.687Z,102757.84
2023-01-21T09:54:34.154Z,102763.56
2023-01-21T09:57:19.463Z,102767.63
2023-01-21T10:00:05.482Z,102773.34
2023-01-21T10:02:48.793Z,102770.59
2023-01-21T10:05:18.670Z,102780.06
2023-01-21T10:07:52.890Z,102777.03
2023-01-21T10:10:32.457Z,102785.78
2023-01-21T10:13:13.329Z,102779.19
2023-01-21T10:15:49.717Z,102777.00
2023-01-21T10:18:26.136Z,102777.56
2023-01-21T10:20:56.884Z,102785.97
2023-01-21T10:23:33.964Z,102787.34
2023-01-21T10:26:07.671Z,102786.78
2023-01-21T10:28:34.493Z,102779.16
2023-01-21T10:31:18.783Z,102779.09
2023-01-21T10:33:45.350Z,102787.22
2023-01-21T10:36:45.215Z,102784.50
2023-01-21T10:39:36.513Z,102776.53
2023-01-21T10:42:43.034Z,102778.97
2023-01-21T10:45:34.963Z,102776.94
2023-01-21T10:48:11.594Z,102784.84
2023-01-21T10:50:50.917Z,102778.72
2023-01-21T10:53:56.662Z,102762.97
2023-01-21T10:56:33.946Z,102783.53
2023-01-21T10:59:05.838Z,102779.13
2023-01-21T11:01:50.295Z,102773.03
2023-01-21T11:04:20.698Z,102773.81
2023-01-21T11:06:59.134Z,102771.88
2023-01-21T11:09:30.065Z,102778.66
2023-01-21T11:11:56.610Z,102780.50
2023-01-21T11:14:25.572Z,102769.09
2023-01-21T11:16:53.381Z,102767.09
2023-01-21T11:19:27.852Z,102767.59
2023-01-21T11:21:57.260Z,102774.13
2023-01-21T11:24:25.669Z,102779.28
2023-01-21T11:26:55.078Z,102764.22
2023-01-21T11:29:23.735Z,102765.53
2023-01-21T11:32:18.449Z,102757.09
2023-01-21T11:34:47.389Z,102763.75
2023-01-21T11:37:27.052Z,102758.59
2023-01-21T11:39:56.305Z,102768.66
2023-01-21T11:42:23.795Z,102760.63
2023-01-21T11:45:01.381Z,102765.75
2023-01-21T11:47:36.208Z,102757.03
2023-01-21T11:50:34.805Z,102762.41
2023-01-21T11:53:07.757Z,102760.47
2023-01-21T11:55:40.740Z,102748.22
2023-01-21T11:58:23.657Z,102760.78
2023-01-21T12:00:53.677Z,102765.38
2023-01-21T12:03:24.823Z,102768.53
2023-01-21T12:05:53.264Z,102759.78
2023-01-21T12:08:25.968Z,102752.22
2023-01-21T12:10:55.911Z,102765.25
2023-01-21T12:13:55.321Z,102758.28
2023-01-21T12:16:28.688Z,102763.66
2023-01-21T12:19:26.601Z,102755.97
2023-01-21T12:22:24.246Z,102764.66
2023-01-21T12:24:56.879Z,102757.28
2023-01-21T12:27:39.832Z,102754.56
2023-01-21T12:30:25.183Z,102750.94
2023-01-21T12:33:00.165Z,102752.97
2023-01-21T12:35:32.877Z,102751.56
2023-01-21T12:38:04.995Z,102748.31
2023-01-21T12:40:36.950Z,102743.94
2023-01-21T12:43:34.795Z,102749.94
2023-01-21T12:46:13.957Z,102751.06
2023-01-21T12:48:57.428Z,102745.06
2023-01-21T12:51:30.344Z,102756.00
2023-01-21T12:54:05.846Z,102751.66
2023-01-21T12:57:04.877Z,102754.88
2023-01-21T12:59:43.561Z,102755.50
2023-01-21T13:02:21.987Z,102752.47
2023-01-21T13:05:53.451Z,102759.03
2023-01-21T13:08:35.297Z,102772.22
2023-01-21T13:11:27.713Z,102761.34
2023-01-21T13:14:09.247Z,102766.53
2023-01-21T13:16:43.483Z,102766.81
2023-01-21T13:19:14.330Z,102768.13
2023-01-21T13:22:02.170Z,102769.78
2023-01-21T13:24:33.320Z,102776.97
2023-01-21T13:26:59.702Z,102774.66
2023-01-21T13:29:28.906Z,102774.97
2023-01-21T13:32:19.961Z,102783.47
2023-01-21T13:35:06.794Z,102782.34
2023-01-21T13:37:41.565Z,102781.09
2023-01-21T13:40:32.694Z,102787.97
2023-01-21T13:43:21.315Z,102792.84
2023-01-21T13:46:06.367Z,102787.38
2023-01-21T13:48:59.102Z,102790.13
2023-01-21T13:52:05.287Z,102789.81
2023-01-21T13:54:34.483Z,102790.56
2023-01-21T13:57:21.818Z,102800.38
2023-01-21T14:00:00.585Z,102804.75
2023-01-21T14:02:38.333Z,102804.22
2023-01-21T14:05:10.853Z,102801.41
2023-01-21T14:07:50.665Z,102811.25
2023-01-21T14:10:44.554Z,102809.31
2023-01-21T18:22:53.112Z,102877.66
2023-01-21T18:25:20.418Z,102858.56
2023-01-21T18:27:51.834Z,102871.81
2023-01-21T18:30:20.280Z,102868.25
2023-01-21T18:32:46.985Z,102862.22
2023-01-21T18:35:19.456Z,102871.47
2023-01-21T18:37:46.318Z,102857.84
2023-01-21T18:40:17.652Z,102865.75
2023-01-21T18:42:45.966Z,102865.44
2023-01-21T18:45:20.479Z,102862.66
2023-01-21T18:47:48.572Z,102859.63
2023-01-21T18:50:20.473Z,102859.94
2023-01-21T18:52:47.059Z,102851.16
2023-01-21T18:55:15.315Z,102860.69
2023-01-21T18:57:44.150Z,102858.22
2023-01-21T19:00:18.996Z,102858.16
2023-01-21T19:02:46.172Z,102857.31
2023-01-21T19:05:13.011Z,102854.94
2023-01-21T19:07:39.516Z,102866.03
2023-01-21T19:10:06.753Z,102856.47
2023-01-21T19:12:33.215Z,102864.09
2023-01-21T19:15:00.186Z,102855.34
2023-01-21T19:17:29.765Z,102848.56
2023-01-21T19:19:57.019Z,102848.81
2023-01-21T19:22:23.819Z,102840.66
2023-01-21T19:24:50.656Z,102852.63
2023-01-21T19:27:33.991Z,102849.31
2023-01-21T19:30:00.458Z,102841.69
2023-01-21T19:32:26.984Z,102842.47
2023-01-21T19:34:54.460Z,102846.56
2023-01-21T19:37:23.224Z,102839.47
2023-01-21T19:39:49.713Z,102846.84
2023-01-21T19:42:16.451Z,102839.75
2023-01-21T19:44:43.101Z,102834.00
2023-01-21T19:47:24.732Z,102846.28
2023-01-21T19:49:51.217Z,102831.63
2023-01-21T19:52:17.687Z,102845.75
2023-01-21T19:54:44.152Z,102842.72
2023-01-21T19:57:15.257Z,102825.81
2023-01-21T19:59:45.439Z,102828.53
2023-01-21T20:02:12.506Z,102840.56
2023-01-21T20:04:39.583Z,102839.75
2023-01-21T20:07:07.169Z,102830.22
2023-01-21T20:09:33.609Z,102840.81
2023-01-21T20:12:02.130Z,102843.84
2023-01-21T20:14:30.692Z,102843.84
2023-01-21T20:16:57.117Z,102841.09
2023-01-21T20:19:23.707Z,102837.56
2023-01-21T20:22:01.197Z,102831.28
2023-01-21T20:24:30.293Z,102841.03
2023-01-21T20:26:58.079Z,102838.31
2023-01-21T20:29:26.542Z,102834.75
2023-01-21T20:31:54.297Z,102842.38
2023-01-21T20:34:20.954Z,102829.00
2023-01-21T20:36:49.533Z,102827.69
2023-01-21T20:39:16.177Z,102827.09
2023-01-21T20:41:43.393Z,102829.56
2023-01-21T20:44:10.385Z,102843.13
2023-01-21T20:46:36.955Z,102839.63
2023-01-21T20:49:03.489Z,102838.28
2023-01-21T20:51:30.049Z,102850.25
2023-01-21T20:53:56.544Z,102849.41
2023-01-21T20:56:34.984Z,102845.84
2023-01-21T20:59:01.492Z,102851.28
2023-01-21T21:01:28.734Z,102840.38
2023-01-21T21:03:55.563Z,102847.16
2023-01-21T21:06:25.956Z,102850.72
2023-01-21T21:08:52.712Z,102843.63
2023-01-21T21:11:20.002Z,102852.59
2023-01-21T21:13:48.485Z,102851.78
2023-01-21T21:16:20.132Z,102849.28
2023-01-21T21:18:47.608Z,102856.66
2023-01-21T21:21:15.544Z,102858.00
2023-01-21T21:23:41.989Z,102851.69
2023-01-21T21:26:29.090Z,102855.50
2023-01-21T21:28:55.904Z,102852.78
2023-01-21T21:31:23.898Z,102846.78
2023-01-21T21:33:50.735Z,102845.91
2023-01-21T21:36:23.074Z,102847.03
2023-01-21T21:38:50.021Z,102838.00
2023-01-21T21:41:37.372Z,102839.91
2023-01-21T21:44:08.069Z,102830.34
2023-01-21T21:46:53.729Z,102835.00
2023-01-21T21:49:20.209Z,102836.69
2023-01-21T21:51:46.705Z,102836.38
2023-01-21T21:54:15.832Z,102828.22
2023-01-21T21:56:42.852Z,102829.38
2023-01-21T21:59:10.343Z,102831.59
2023-01-21T22:01:36.971Z,102826.75
2023-01-21T22:04:04.561Z,102822.69
2023-01-21T22:06:32.118Z,102818.16
2023-01-21T22:08:59.327Z,102826.06
2023-01-21T22:11:27.226Z,102837.00
2023-01-21T22:13:54.754Z,102833.00
2023-01-21T22:16:27.570Z,102833.88
2023-01-21T22:18:55.049Z,102843.19
2023-01-21T22:21:24.800Z,102839.16
2023-01-21T22:23:52.595Z,102831.03
2023-01-21T22:26:21.836Z,102840.63
2023-01-21T22:28:49.055Z,102836.28
2023-01-21T22:31:26.590Z,102837.19
2023-01-21T22:33:53.521Z,102833.69
2023-01-21T22:36:22.375Z,102821.19
2023-01-21T22:38:49.468Z,102830.97
2023-01-21T22:41:18.185Z,102827.41
2023-01-21T22:43:45.793Z,102839.16
2023-01-21T22:46:14.520Z,102842.97
2023-01-21T22:48:42.151Z,102844.88
2023-01-21T22:51:12.812Z,102846.78
2023-01-21T22:53:45.465Z,102843.22
2023-01-21T22:56:14.606Z,102848.38
2023-01-21T22:58:41.418Z,102841.25
2023-01-21T23:01:08.718Z,102848.56
2023-01-21T23:03:36.848Z,102839.28
2023-01-21T23:06:06.190Z,102836.50
2023-01-21T23:08:33.312Z,102828.88
2023-01-21T23:11:01.768Z,102844.03
2023-01-21T23:13:28.607Z,102848.94
2023-01-21T23:15:55.175Z,102835.53
2023-01-21T23:18:22.264Z,102830.59
2023-01-21T23:20:48.866Z,102831.38
2023-01-21T23:23:15.388Z,102825.88
2023-01-21T23:25:43.210Z,102826.91
2023-01-21T23:28:11.905Z,102814.31
2023-01-21T23:30:38.748Z,102807.47
2023-01-21T23:33:05.291Z,102812.88
2023-01-21T23:35:34.318Z,102802.50
2023-01-21T23:38:02.406Z,102799.44
2023-01-21T23:40:28.840Z,102798.09
2023-01-21T23:42:55.375Z,102804.06
2023-01-21T23:45:21.820Z,102797.72
2023-01-21T23:47:48.584Z,102814.13
2023-01-21T23:50:15.608Z,102805.41
2023-01-21T23:52:42.194Z,102802.06
2023-01-21T23:55:10.375Z,102819.81
2023-01-21T23:57:37.555Z,102808.06
